Aviation Digital Data Service (ADDS)

Output produced by TAFs form (1131 UTC 19 January 2018)
found at http://www.aviationweather.gov/adds/tafs/
 
RJSK 191100Z VRB02KT 9999 FEW020 BKN040 M01/M07 Q1021
TAF RJSK 191105Z 1912/2018 13005KT 9999 FEW020 BKN040 
     TEMPO 2006/2012 1500 -SHSN FEW002 BKN005 BKN008 
     BECMG 2015/2018 30008KT